• Join FlightAware (Why Join?)
  • Login
  • US Flag 
06:57AM EDT


 

Airport Tracker/Info


-or-


 

Live Flight TrackerFlight Track Log ✈ SWA3213 ✈ 09-Aug-2014 ✈ KBWI - KRDU

Flight Track Log - Related Links

Times and Time Zones

All times are in EDT time to prevent confusion due to time zone crossing. See the SWA3213 flight status page for this flight to view local times or setup timezone preferences in your user account.

Time Position Orientation Groundspeed Altitude Reporting Facility
EDT Latitude Longitude Course Direction KTS MPH feet Rate Location/Type
09:58AM 38.8208 -76.6929 184° South  Level FlightAware Approximate
09:59AM 38.7315 -76.7019 184° South  Level FlightAware Approximate
10:00AM 38.6423 -76.7108 184° South  Level FlightAware Approximate
10:01AM 38.5530 -76.7167 180° South  Level FlightAware Approximate
10:02AM 38.4637 -76.7127 171° South  Level FlightAware Approximate
10:03AM 38.3750 -76.7000 180° South  Level FlightAware Approximate
10:04AM 38.2985 -76.6833 180° South  Level FlightAware Approximate
10:05AM 38.2095 -76.6752 171° South  Level FlightAware Approximate
10:05AM 39.1833 -76.7000 199° South 164 189 1,200  Level Potomac TRACON
10:06AM 38.1211 -76.6575 171° South  Level FlightAware Approximate
10:06AM 39.1333 -76.7167 222° Southwest 222 255 2,900  Level Potomac TRACON
10:07AM 38.0558 -76.7050 238° Southwest  Level FlightAware Approximate
10:07AM 39.0833 -76.6667 142° Southeast 257 296 5,000  Level Potomac TRACON
10:08AM 37.9995 -76.7924 225° Southwest  Level FlightAware Approximate
10:08AM 39.0333 -76.6000 134° Southeast 292 336 8,200  Level Potomac TRACON
10:09AM 37.9255 -76.8511 199° South  Level FlightAware Approximate
10:09AM 38.9667 -76.5167 136° Southeast 317 365 11,400  Level Potomac TRACON
10:10AM 37.8407 -76.8875 199° South  Level FlightAware Approximate
10:10AM 38.8667 -76.4833 165° South 375 432 14,000  Level Potomac TRACON
10:11AM 37.7559 -76.9238 199° South  Level FlightAware Approximate
10:11AM 38.7822 -76.5689 218° Southwest 374 430 14,000  Level Washington Center
10:12AM 38.6919 -76.6317 208° Southwest 374 430 16,300 2,580 Climbing Washington Center
10:13AM 38.6019 -76.6967 209° Southwest 374 430 19,100 2,820 Climbing Washington Center
10:14AM 38.4972 -76.7244 192° South 374 430 22,000 1,380 Climbing Washington Center
10:15AM 38.3911 -76.7122 175° South 379 436 22,000  Level Washington Center
10:16AM 38.2886 -76.7425 193° South 379 436 22,000  Level Washington Center
10:17AM 38.1903 -76.7831 198° South 379 436 22,000  Level Washington Center
10:18AM 38.0897 -76.8239 198° South 379 436 22,000  Level Washington Center
10:19AM 37.9997 -76.8592 197° South 384 442 22,000  Level Washington Center
10:20AM 37.8972 -76.8969 196° South 384 442 22,000  Level Washington Center
10:21AM 37.7944 -76.9372 197° South 384 442 22,000  Level Washington Center
10:22AM 37.6939 -76.9775 198° South 384 442 22,000  Level Washington Center
10:23AM 37.5911 -77.0175 197° South 384 442 22,000  Level Washington Center
10:24AM 37.4761 -77.0600 196° South 390 449 22,000  Level Washington Center
10:26AM 37.3733 -77.0997 197° South 390 449 22,000  Level Washington Center
10:26AM 37.2872 -77.1478 204° Southwest 383 441 22,000  Level Washington Center
10:27AM 37.1861 -77.2133 207° Southwest 378 435 22,000  Level Washington Center
10:28AM 37.0956 -77.2792 210° Southwest 378 435 22,000  Level Washington Center
10:29AM 37.0069 -77.3447 211° Southwest 378 435 22,000  Level Washington Center
10:30AM 36.9206 -77.4106 211° Southwest 373 429 22,000  Level Washington Center
10:31AM 36.8319 -77.4733 210° Southwest 373 429 22,000  Level Washington Center
10:32AM 36.7433 -77.5386 211° Southwest 368 423 22,000  Level Washington Center
10:33AM 36.6567 -77.6064 212° Southwest 368 423 22,000  Level Washington Center
10:34AM 36.5658 -77.6711 210° Southwest 368 423 22,000  Level Washington Center
10:35AM 36.4892 -77.7492 219° Southwest 368 423 22,000  Level Washington Center
10:36AM 36.4231 -77.8353 226° Southwest 362 417 22,000 -1,500 Level Washington Center
10:37AM 36.3694 -77.9161 231° Southwest 348 400 19,000 -2,340 Descending Washington Center
10:38AM 36.3008 -77.9967 223° Southwest 329 379 17,600 -1,740 Descending Washington Center
10:39AM 36.2581 -78.0544 227° Southwest 326 375 16,300 -1,620 Descending Washington Center
10:39AM 36.2428 -78.0797 233° Southwest 336 387 15,800 -1,680 Descending Washington Center
10:40AM 36.1894 -78.1425 224° Southwest 326 375 14,500 -1,920 Descending Washington Center
10:40AM 36.1700 -78.1675 226° Southwest 336 387 13,900 -2,040 Descending Washington Center
10:41AM 36.1353 -78.2358 238° Southwest 324 373 12,500 -1,920 Descending Washington Center
10:41AM 36.1242 -78.2639 244° Southwest 329 379 12,000 -540 Descending Washington Center
10:42AM 36.0914 -78.3294 238° Southwest 303 349 12,000  Level Washington Center
10:42AM 36.0825 -78.3522 244° Southwest 313 360 12,000 -1,320 Level Washington Center
10:43AM 36.0408 -78.4381 239° Southwest 303 349 10,400 -1,200 Descending Washington Center
10:44AM 36.0103 -78.4986 238° Southwest 277 319 10,000 -600 Descending Washington Center
10:44AM 36.0078 -78.5089 253° West 290 334 9,800 -1,320 Descending Washington Center
10:45AM 35.9647 -78.5611 224° Southwest 254 292 8,700 -1,200 Descending Washington Center
10:45AM 35.9561 -78.5736 230° Southwest 273 314 8,600 -600 Descending Washington Center
10:46AM 35.9069 -78.6283 222° Southwest 260 299 8,000 -360 Descending Washington Center
10:47AM 35.8581 -78.6622 209° Southwest 221 254 8,000  Level Washington Center
10:47AM 35.8556 -78.6725 253° West 240 276 8,000 -840 Level Washington Center
10:48AM 35.8019 -78.7319 222° Southwest 227 261 7,000 -1,020 Descending Washington Center
10:49AM 35.7653 -78.7714 221° Southwest 224 258 6,200 -1,020 Descending Washington Center
10:50AM 35.7242 -78.8258 227° Southwest 219 252 5,200 -1,200 Descending Washington Center
10:51AM 35.6911 -78.8936 239° Southwest 219 252 3,900 -1,140 Descending Washington Center
10:52AM 35.7186 -78.9536 299° West 221 254 3,000 -840 Descending Washington Center
10:53AM 35.7547 -78.9322 26° Northeast 200 230 2,400 -420 Descending Washington Center
10:54AM 35.7914 -78.8875 45° Northeast 178 205 2,300 -540 Descending Washington Center
10:55AM 35.8303 -78.8381 46° Northeast 171 197 1,300 -840 Descending Washington Center
10:56AM 35.8542 -78.8108 43° Northeast 129 148 700 -660 Descending Washington Center
10:58AM 35.8667 -78.7833 42° Northeast  Level FlightAware Approximate
11:05AM 35.8776 -78.7875 42° Northeast  Level Estimated